createdAt,value
2023-05-12T00:00:13.547Z,90.50
2023-05-12T00:02:40.611Z,90.50
2023-05-12T00:05:08.449Z,90.60
2023-05-12T00:07:35.526Z,90.60
2023-05-12T00:10:02.737Z,90.70
2023-05-12T00:12:29.778Z,90.70
2023-05-12T00:14:56.790Z,90.60
2023-05-12T00:17:23.665Z,90.70
2023-05-12T00:19:50.520Z,90.70
2023-05-12T00:22:17.758Z,90.70
2023-05-12T00:24:44.668Z,90.70
2023-05-12T00:27:11.513Z,90.70
2023-05-12T00:29:38.415Z,90.80
2023-05-12T00:32:05.954Z,90.80
2023-05-12T00:34:32.842Z,90.80
2023-05-12T00:36:59.778Z,90.80
2023-05-12T00:39:26.636Z,90.80
2023-05-12T00:41:57.861Z,90.80
2023-05-12T00:44:24.888Z,90.90
2023-05-12T00:46:52.796Z,91.00
2023-05-12T00:49:20.870Z,91.00
2023-05-12T00:51:48.071Z,90.90
2023-05-12T00:54:15.316Z,90.90
2023-05-12T00:56:42.583Z,91.00
2023-05-12T00:59:09.526Z,90.90
2023-05-12T01:01:36.882Z,91.10
2023-05-12T01:04:04.070Z,91.10
2023-05-12T01:06:55.100Z,91.20
2023-05-12T01:09:22.500Z,91.20
2023-05-12T01:11:49.388Z,91.30
2023-05-12T01:14:16.264Z,91.30
2023-05-12T01:16:53.687Z,91.40
2023-05-12T01:19:43.791Z,91.40
2023-05-12T01:22:12.348Z,91.50
2023-05-12T01:24:46.729Z,91.50
2023-05-12T01:27:15.398Z,91.50
2023-05-12T01:29:43.266Z,91.50
2023-05-12T01:32:10.843Z,91.60
2023-05-12T01:34:37.701Z,91.70
2023-05-12T01:37:04.869Z,91.70
2023-05-12T01:39:31.745Z,91.70
2023-05-12T01:41:58.630Z,91.70
2023-05-12T01:44:25.593Z,91.80
2023-05-12T01:46:52.561Z,91.90
2023-05-12T01:49:19.659Z,91.90
2023-05-12T01:51:46.509Z,91.90
2023-05-12T01:54:13.417Z,92.00
2023-05-12T01:56:41.123Z,92.00
2023-05-12T01:59:08.460Z,92.10
2023-05-12T02:01:35.664Z,92.00
2023-05-12T02:04:03.901Z,92.10
2023-05-12T02:06:31.581Z,92.10
2023-05-12T02:08:58.521Z,92.20
2023-05-12T02:11:25.967Z,92.30
2023-05-12T02:13:52.910Z,92.30
2023-05-12T02:16:19.829Z,92.30
2023-05-12T02:18:46.696Z,92.30
2023-05-12T02:21:13.674Z,92.40
2023-05-12T02:23:40.681Z,92.30
2023-05-12T02:26:07.753Z,92.30
2023-05-12T02:28:34.691Z,92.40
2023-05-12T02:31:01.529Z,92.50
2023-05-12T02:33:28.423Z,92.60
2023-05-12T02:35:55.531Z,92.60
2023-05-12T02:38:22.628Z,92.70
2023-05-12T02:40:49.483Z,92.70
2023-05-12T02:43:16.549Z,92.80
2023-05-12T02:45:43.488Z,92.90
2023-05-12T02:48:10.504Z,93.00
2023-05-12T02:50:37.629Z,93.10
2023-05-12T02:53:04.702Z,93.10
2023-05-12T02:55:31.574Z,93.20
2023-05-12T02:57:58.445Z,93.20
2023-05-12T03:00:25.463Z,93.30
2023-05-12T03:02:52.358Z,93.40
2023-05-12T03:05:19.399Z,93.50
2023-05-12T03:07:48.658Z,93.60
2023-05-12T03:10:17.140Z,93.60
2023-05-12T03:12:44.040Z,93.70
2023-05-12T03:15:11.525Z,93.70
2023-05-12T03:17:38.550Z,93.80
2023-05-12T03:20:06.385Z,93.80
2023-05-12T03:22:33.546Z,93.90
2023-05-12T03:25:00.406Z,93.90
2023-05-12T03:27:27.374Z,94.10
2023-05-12T03:29:54.295Z,94.10
2023-05-12T03:32:21.245Z,94.10
2023-05-12T03:34:48.135Z,93.90
2023-05-12T03:37:14.993Z,94.00
2023-05-12T03:39:41.815Z,94.10
2023-05-12T03:42:08.722Z,94.00
2023-05-12T03:44:35.722Z,93.90
2023-05-12T03:47:02.809Z,93.90
2023-05-12T03:49:29.734Z,93.90
2023-05-12T03:51:56.676Z,93.90
2023-05-12T03:54:23.604Z,93.90
2023-05-12T03:56:52.041Z,94.10
2023-05-12T03:59:19.201Z,94.00
2023-05-12T04:01:46.407Z,94.00
2023-05-12T04:04:13.453Z,94.10
2023-05-12T04:06:40.348Z,94.10
2023-05-12T04:09:07.310Z,94.10
2023-05-12T04:11:34.245Z,94.00
2023-05-12T04:14:01.183Z,93.90
2023-05-12T04:16:28.439Z,93.70
2023-05-12T04:18:55.556Z,93.60
2023-05-12T04:21:22.523Z,93.40
2023-05-12T04:23:52.864Z,93.20
2023-05-12T04:26:20.100Z,93.30
2023-05-12T04:28:47.880Z,93.20
2023-05-12T04:31:14.787Z,93.00
2023-05-12T04:33:41.665Z,93.00
2023-05-12T04:36:08.776Z,92.90
2023-05-12T04:38:35.632Z,92.70
2023-05-12T04:41:02.489Z,92.70
2023-05-12T04:46:00.345Z,92.30
2023-05-12T04:48:29.275Z,92.30
2023-05-12T04:50:59.667Z,92.20
2023-05-12T04:53:27.586Z,92.20
2023-05-12T04:55:56.568Z,92.30
2023-05-12T04:58:23.644Z,92.00
2023-05-12T05:00:50.552Z,91.80
2023-05-12T05:03:17.634Z,91.70
2023-05-12T05:05:44.710Z,91.60
2023-05-12T05:08:11.861Z,91.60
2023-05-12T05:10:38.704Z,91.40
2023-05-12T05:13:06.082Z,91.10
2023-05-12T05:15:33.100Z,90.80
2023-05-12T05:18:01.897Z,90.90
2023-05-12T05:20:29.441Z,91.10
2023-05-12T05:22:56.552Z,90.70
2023-05-12T05:25:23.748Z,90.40
2023-05-12T05:27:50.667Z,90.10
2023-05-12T05:30:17.696Z,90.20
2023-05-12T05:32:44.695Z,90.00
2023-05-12T05:35:11.622Z,89.80
2023-05-12T05:37:38.523Z,89.60
2023-05-12T05:40:06.215Z,88.50
2023-05-12T05:42:33.094Z,88.60
2023-05-12T05:45:00.079Z,88.80
2023-05-12T05:47:28.297Z,89.20
2023-05-12T05:49:55.618Z,88.80
2023-05-12T05:52:23.787Z,87.60
2023-05-12T05:54:50.721Z,87.00
2023-05-12T05:57:17.592Z,87.70
2023-05-12T05:59:44.488Z,88.40
2023-05-12T06:02:11.509Z,86.10
2023-05-12T06:04:38.401Z,86.20
2023-05-12T06:07:05.902Z,86.50
2023-05-12T06:09:32.877Z,86.70
2023-05-12T06:12:00.019Z,85.90
2023-05-12T06:14:26.919Z,85.80
2023-05-12T06:16:53.964Z,85.60
2023-05-12T06:19:21.219Z,85.70
2023-05-12T06:21:48.218Z,84.30
2023-05-12T06:24:15.252Z,85.60
2023-05-12T06:26:42.145Z,84.20
2023-05-12T06:29:09.216Z,83.60
2023-05-12T06:31:36.187Z,84.60
2023-05-12T06:34:03.216Z,84.50
2023-05-12T06:36:30.550Z,84.10
2023-05-12T06:38:57.536Z,84.80
2023-05-12T06:41:25.260Z,85.00
2023-05-12T06:43:52.571Z,82.70
2023-05-12T06:46:19.508Z,83.10
2023-05-12T06:48:46.475Z,82.80
2023-05-12T06:51:13.628Z,83.10
2023-05-12T06:53:43.707Z,81.50
2023-05-12T06:56:11.478Z,82.10
2023-05-12T06:58:38.626Z,81.20
2023-05-12T07:01:06.114Z,78.40
2023-05-12T07:03:33.650Z,81.30
2023-05-12T07:06:01.015Z,81.30
2023-05-12T07:08:28.103Z,79.70
2023-05-12T07:10:54.981Z,78.00
2023-05-12T07:13:22.564Z,78.50
2023-05-12T07:15:49.526Z,76.90
2023-05-12T07:18:16.515Z,76.20
2023-05-12T07:20:44.162Z,77.80
2023-05-12T07:23:11.667Z,79.60
2023-05-12T07:25:39.522Z,78.00
2023-05-12T07:28:06.580Z,78.10
2023-05-12T07:30:33.608Z,78.60
2023-05-12T07:33:01.538Z,79.40
2023-05-12T07:35:28.523Z,78.80
2023-05-12T07:37:55.481Z,80.30
2023-05-12T07:40:22.518Z,78.90
2023-05-12T07:42:49.534Z,76.60
2023-05-12T07:45:23.055Z,77.00
2023-05-12T07:47:51.016Z,76.80
2023-05-12T07:50:18.940Z,75.80
2023-05-12T07:52:53.789Z,76.40
2023-05-12T07:55:22.983Z,75.60
2023-05-12T07:57:50.673Z,76.40
2023-05-12T08:00:18.268Z,76.80
2023-05-12T08:02:45.308Z,75.10
2023-05-12T08:05:12.218Z,74.10
2023-05-12T08:07:41.194Z,76.80
2023-05-12T08:10:09.379Z,76.40
2023-05-12T08:12:36.415Z,74.60
2023-05-12T08:15:03.544Z,75.90
2023-05-12T08:17:30.535Z,74.60
2023-05-12T08:19:57.415Z,76.10
2023-05-12T08:22:24.332Z,76.90
2023-05-12T08:24:52.758Z,76.70
2023-05-12T08:27:20.918Z,76.20
2023-05-12T08:29:47.834Z,76.90
2023-05-12T08:32:15.233Z,77.50
2023-05-12T08:34:42.158Z,76.30
2023-05-12T08:37:09.341Z,77.00
2023-05-12T08:39:37.103Z,73.00
2023-05-12T08:42:09.601Z,75.10
2023-05-12T08:44:40.700Z,75.50
2023-05-12T08:47:08.661Z,73.90
2023-05-12T08:49:36.496Z,75.20
2023-05-12T08:52:03.906Z,73.20
2023-05-12T08:54:30.909Z,75.20
2023-05-12T08:59:28.202Z,74.00
2023-05-12T09:01:56.628Z,74.70
2023-05-12T09:04:23.648Z,74.90
2023-05-12T09:06:52.046Z,77.20
2023-05-12T09:09:21.166Z,75.70
2023-05-12T09:11:50.847Z,76.10
2023-05-12T09:14:25.660Z,74.00
2023-05-12T09:17:00.357Z,75.60
2023-05-12T09:19:27.315Z,75.90
2023-05-12T09:21:54.459Z,76.10
2023-05-12T09:24:22.409Z,75.90
2023-05-12T09:26:50.180Z,75.80
2023-05-12T09:29:27.937Z,76.30
2023-05-12T09:32:00.758Z,73.10
2023-05-12T09:34:41.626Z,75.20
2023-05-12T09:37:09.026Z,75.80
2023-05-12T09:39:36.737Z,73.70
2023-05-12T09:42:03.987Z,76.00
2023-05-12T09:44:32.582Z,74.80
2023-05-12T09:47:10.481Z,74.60
2023-05-12T09:49:38.392Z,74.90
2023-05-12T09:52:05.756Z,74.50
2023-05-12T09:54:34.390Z,72.80
2023-05-12T09:57:05.243Z,74.50
2023-05-12T09:59:33.942Z,72.60
2023-05-12T10:02:05.523Z,71.50
2023-05-12T10:04:45.200Z,72.50
2023-05-12T10:07:14.516Z,69.20
2023-05-12T10:09:44.373Z,72.10
2023-05-12T10:12:11.828Z,72.80
2023-05-12T10:14:38.969Z,71.80
2023-05-12T10:17:07.310Z,71.50
2023-05-12T10:19:35.651Z,68.40
2023-05-12T10:22:03.027Z,68.70
2023-05-12T10:24:29.894Z,71.70
2023-05-12T10:26:57.774Z,71.50
2023-05-12T10:29:32.983Z,71.90
2023-05-12T10:32:03.362Z,67.90
2023-05-12T10:34:37.156Z,71.20
2023-05-12T10:37:11.058Z,68.10
2023-05-12T10:39:47.604Z,68.40
2023-05-12T10:42:18.202Z,68.30
2023-05-12T10:44:51.453Z,66.60
2023-05-12T10:47:19.026Z,68.00
2023-05-12T10:49:46.494Z,70.00
2023-05-12T10:52:19.554Z,69.30
2023-05-12T10:54:47.737Z,67.60
2023-05-12T10:57:21.387Z,66.00
2023-05-12T10:59:53.466Z,66.10
2023-05-12T11:02:30.776Z,67.50
2023-05-12T11:05:00.594Z,64.90
2023-05-12T11:07:32.794Z,65.00
2023-05-12T11:10:05.877Z,68.70
2023-05-12T11:12:36.656Z,68.20
2023-05-12T11:15:05.427Z,69.40
2023-05-12T11:17:32.871Z,69.20
2023-05-12T11:20:01.278Z,66.70
2023-05-12T11:22:28.639Z,67.40
2023-05-12T11:24:55.723Z,63.80
2023-05-12T11:27:24.519Z,64.70
2023-05-12T11:30:02.983Z,67.00
2023-05-12T11:32:30.452Z,68.50
2023-05-12T11:35:09.954Z,68.80
2023-05-12T11:37:39.810Z,67.60
2023-05-12T11:40:19.930Z,62.70
2023-05-12T11:42:49.052Z,64.90
2023-05-12T11:45:28.840Z,63.30
2023-05-12T11:48:13.938Z,63.90
2023-05-12T11:50:46.654Z,61.80
2023-05-12T11:53:17.346Z,63.50
2023-05-12T11:55:55.845Z,62.20
2023-05-12T11:58:30.394Z,60.10
2023-05-12T12:01:09.028Z,64.20
2023-05-12T12:03:49.038Z,58.30
2023-05-12T12:06:16.588Z,57.90
2023-05-12T12:08:57.725Z,59.70
2023-05-12T12:11:30.823Z,57.80
2023-05-12T12:13:58.048Z,58.50
2023-05-12T12:16:26.612Z,59.40
2023-05-12T12:18:54.135Z,58.80
2023-05-12T12:21:22.468Z,61.00
2023-05-12T12:23:51.712Z,57.30
2023-05-12T12:26:20.947Z,57.50
2023-05-12T12:28:48.221Z,60.10
2023-05-12T12:31:16.089Z,62.00
2023-05-12T12:33:43.569Z,60.90
2023-05-12T12:36:10.606Z,59.50
2023-05-12T12:38:38.136Z,61.60
2023-05-12T12:41:06.435Z,62.50
2023-05-12T12:43:33.496Z,59.80
2023-05-12T12:46:00.490Z,58.00
2023-05-12T12:48:28.580Z,60.20
2023-05-12T12:50:56.151Z,60.00
2023-05-12T12:53:23.078Z,58.10
2023-05-12T12:55:50.114Z,58.10
2023-05-12T12:58:17.045Z,62.10
2023-05-12T13:00:43.989Z,63.30
2023-05-12T13:03:11.176Z,63.60
2023-05-12T13:05:38.751Z,63.80
2023-05-12T13:08:06.078Z,59.70
2023-05-12T13:10:33.115Z,58.80
2023-05-12T13:13:00.860Z,62.10
2023-05-12T13:15:28.006Z,62.40
2023-05-12T13:17:55.020Z,62.20
2023-05-12T13:20:22.199Z,62.50
2023-05-12T13:22:49.396Z,59.80
2023-05-12T13:25:16.574Z,59.80
2023-05-12T13:27:43.508Z,63.10
2023-05-12T13:30:12.854Z,63.80
2023-05-12T13:32:40.890Z,62.00
2023-05-12T13:35:08.889Z,64.30
2023-05-12T13:37:35.891Z,65.50
2023-05-12T13:40:02.952Z,64.60
2023-05-12T13:42:29.971Z,65.00
2023-05-12T13:44:56.938Z,65.50
2023-05-12T13:47:23.858Z,65.50
2023-05-12T13:49:50.784Z,62.60
2023-05-12T13:52:18.412Z,64.40
2023-05-12T13:54:45.393Z,64.40
2023-05-12T13:57:12.254Z,65.50
2023-05-12T13:59:39.072Z,65.00
2023-05-12T14:02:09.830Z,65.10
2023-05-12T14:04:36.902Z,64.90
2023-05-12T14:07:03.879Z,66.00
2023-05-12T14:09:30.783Z,66.60
2023-05-12T14:11:58.125Z,66.80
2023-05-12T14:14:25.201Z,65.30
2023-05-12T14:16:52.307Z,66.10
2023-05-12T14:19:19.429Z,66.30
2023-05-12T14:21:46.383Z,66.20
2023-05-12T14:24:13.385Z,64.50
2023-05-12T14:26:40.339Z,65.00
2023-05-12T14:29:08.848Z,66.00
2023-05-12T14:31:35.910Z,66.00
2023-05-12T14:34:04.456Z,65.20
2023-05-12T14:36:32.641Z,66.00
2023-05-12T14:38:59.642Z,64.70
2023-05-12T14:41:26.845Z,66.50
2023-05-12T14:43:53.847Z,65.70
2023-05-12T14:46:20.760Z,65.60
2023-05-12T14:48:48.909Z,66.40
2023-05-12T14:51:15.902Z,67.30
2023-05-12T14:53:42.979Z,66.30
2023-05-12T14:56:10.025Z,66.10
2023-05-12T14:58:36.937Z,65.10
2023-05-12T15:01:04.477Z,65.80
2023-05-12T15:03:33.697Z,66.10
2023-05-12T15:08:30.415Z,65.60
2023-05-12T15:10:57.318Z,67.00
2023-05-12T15:13:24.254Z,66.50
2023-05-12T15:15:52.939Z,66.50
2023-05-12T15:18:22.266Z,66.90
2023-05-12T15:20:49.206Z,67.40
2023-05-12T15:23:16.353Z,65.30
2023-05-12T15:25:43.227Z,66.70
2023-05-12T15:28:10.085Z,67.60
2023-05-12T15:30:37.105Z,67.80
2023-05-12T15:33:04.430Z,67.30
2023-05-12T15:35:31.572Z,69.20
2023-05-12T15:37:59.324Z,69.00
2023-05-12T15:40:26.347Z,68.00
2023-05-12T15:42:53.169Z,67.60
2023-05-12T15:45:20.172Z,67.90
2023-05-12T15:47:47.309Z,67.90
2023-05-12T15:50:19.710Z,67.30
2023-05-12T15:52:47.560Z,68.80
2023-05-12T15:55:14.574Z,68.90
2023-05-12T15:57:41.587Z,69.10
2023-05-12T16:00:09.027Z,68.20
2023-05-12T16:02:36.215Z,68.00
2023-05-12T16:05:03.265Z,68.30
2023-05-12T16:07:31.207Z,69.20
2023-05-12T16:09:58.483Z,69.30
2023-05-12T16:12:25.533Z,69.60
2023-05-12T16:14:52.490Z,69.50
2023-05-12T16:17:19.368Z,70.10
2023-05-12T16:19:46.677Z,69.80
2023-05-12T16:22:14.554Z,69.70
2023-05-12T16:24:41.621Z,69.90
2023-05-12T16:27:08.841Z,70.10
2023-05-12T16:29:35.944Z,70.30
2023-05-12T16:32:02.936Z,71.10
2023-05-12T16:34:29.922Z,71.40
2023-05-12T16:36:58.001Z,71.80
2023-05-12T16:39:24.885Z,71.10
2023-05-12T16:41:51.780Z,71.60
2023-05-12T16:44:18.643Z,72.00
2023-05-12T16:46:45.673Z,72.60
2023-05-12T16:49:12.666Z,72.90
2023-05-12T16:51:39.533Z,72.80
2023-05-12T16:54:06.580Z,72.90
2023-05-12T16:56:33.625Z,73.20
2023-05-12T16:59:01.164Z,73.60
2023-05-12T17:01:30.370Z,73.70
2023-05-12T17:03:57.622Z,74.10
2023-05-12T17:06:24.573Z,74.70
2023-05-12T17:08:51.436Z,74.90
2023-05-12T17:11:18.811Z,75.10
2023-05-12T17:13:45.698Z,75.10
2023-05-12T17:16:12.725Z,75.20
2023-05-12T17:21:11.563Z,75.10
2023-05-12T17:23:38.709Z,75.70
2023-05-12T17:26:05.663Z,75.90
2023-05-12T17:28:32.673Z,76.30
2023-05-12T17:31:01.444Z,76.30
2023-05-12T17:33:29.252Z,76.60
2023-05-12T17:36:10.998Z,77.00
2023-05-12T17:38:40.043Z,77.30
2023-05-12T17:41:06.977Z,77.60
2023-05-12T17:43:33.946Z,77.70
2023-05-12T17:46:01.122Z,78.10
2023-05-12T17:48:31.119Z,78.30
2023-05-12T17:50:57.975Z,78.50
2023-05-12T17:53:25.023Z,78.80
2023-05-12T17:55:51.929Z,79.10
2023-05-12T17:58:18.898Z,79.40
2023-05-12T18:00:45.849Z,79.60
2023-05-12T18:03:13.139Z,79.60
2023-05-12T18:05:40.123Z,79.80
2023-05-12T18:08:08.017Z,80.20
2023-05-12T18:10:36.061Z,80.70
2023-05-12T18:13:03.141Z,80.70
2023-05-12T18:15:30.256Z,81.20
2023-05-12T18:17:58.057Z,81.10
2023-05-12T18:20:25.755Z,82.00
2023-05-12T18:22:53.398Z,81.90
2023-05-12T18:25:20.769Z,82.20
2023-05-12T18:27:48.903Z,82.70
2023-05-12T18:30:16.104Z,82.40
2023-05-12T18:32:43.458Z,82.60
2023-05-12T18:35:10.517Z,82.80
2023-05-12T18:37:37.957Z,82.80
2023-05-12T18:40:05.213Z,83.10
2023-05-12T18:42:32.095Z,83.10
2023-05-12T18:44:59.062Z,83.10
2023-05-12T18:47:26.288Z,83.20
2023-05-12T18:49:53.407Z,83.70
2023-05-12T18:52:21.420Z,83.60
2023-05-12T18:54:49.881Z,83.90
2023-05-12T18:57:17.474Z,84.40
2023-05-12T18:59:44.448Z,84.40
2023-05-12T19:02:11.461Z,84.80
2023-05-12T19:04:42.146Z,85.70
2023-05-12T19:07:15.336Z,86.50
2023-05-12T19:09:43.112Z,87.20
2023-05-12T19:12:11.786Z,87.80
2023-05-12T19:14:43.259Z,88.60
2023-05-12T19:17:10.934Z,89.00
2023-05-12T19:19:38.441Z,89.10
2023-05-12T19:22:05.743Z,89.70
2023-05-12T19:24:32.951Z,89.80
2023-05-12T19:27:00.026Z,89.40
2023-05-12T19:29:26.994Z,89.20
2023-05-12T19:31:54.165Z,89.50
2023-05-12T19:34:21.608Z,89.20
2023-05-12T19:36:48.722Z,89.40
2023-05-12T19:39:15.689Z,90.40
2023-05-12T19:41:42.719Z,90.20
2023-05-12T19:44:09.617Z,90.00
2023-05-12T19:46:36.737Z,90.10
2023-05-12T19:49:03.800Z,90.50
2023-05-12T19:51:30.765Z,90.50
2023-05-12T19:53:57.980Z,90.80
2023-05-12T19:56:25.001Z,91.20
2023-05-12T19:58:52.386Z,91.10
2023-05-12T20:01:19.378Z,91.40
2023-05-12T20:03:46.381Z,91.80
2023-05-12T20:06:13.461Z,92.00
2023-05-12T20:08:40.387Z,92.30
2023-05-12T20:11:07.521Z,92.40
2023-05-12T20:13:34.460Z,92.50
2023-05-12T20:16:01.487Z,92.50
2023-05-12T20:18:28.895Z,92.80
2023-05-12T20:20:56.377Z,93.00
2023-05-12T20:23:23.383Z,93.00
2023-05-12T20:25:51.341Z,93.20
2023-05-12T20:28:18.316Z,93.20
2023-05-12T20:30:45.163Z,93.20
2023-05-12T20:33:12.038Z,93.10
2023-05-12T20:35:39.139Z,92.90
2023-05-12T20:38:07.135Z,92.90
2023-05-12T20:40:34.103Z,92.90
2023-05-12T20:43:01.249Z,92.80
2023-05-12T20:45:28.247Z,92.60
2023-05-12T20:47:55.236Z,92.80
2023-05-12T20:50:23.793Z,92.90
2023-05-12T20:52:50.885Z,92.80
2023-05-12T20:55:17.888Z,93.10
2023-05-12T20:57:45.077Z,93.40
2023-05-12T21:00:13.822Z,93.60
2023-05-12T21:02:40.875Z,93.70
2023-05-12T21:05:08.186Z,93.80
2023-05-12T21:07:35.161Z,94.00
2023-05-12T21:10:03.704Z,94.20
2023-05-12T21:12:31.696Z,94.30
2023-05-12T21:14:58.706Z,94.30
2023-05-12T21:17:25.673Z,94.30
2023-05-12T21:19:52.653Z,94.30
2023-05-12T21:22:19.537Z,94.40
2023-05-12T21:24:46.581Z,94.50
2023-05-12T21:27:13.567Z,94.60
2023-05-12T21:29:40.591Z,94.60
2023-05-12T21:32:08.003Z,94.60
2023-05-12T21:34:36.092Z,94.70
2023-05-12T21:37:03.229Z,94.60
2023-05-12T21:39:30.221Z,94.70
2023-05-12T21:41:57.313Z,94.80
2023-05-12T21:44:24.260Z,95.00
2023-05-12T21:46:51.351Z,95.30
2023-05-12T21:49:18.466Z,95.40
2023-05-12T21:51:45.388Z,95.50
2023-05-12T21:54:12.515Z,95.70
2023-05-12T21:56:39.476Z,95.70
2023-05-12T21:59:06.603Z,95.90
2023-05-12T22:01:33.625Z,95.90
2023-05-12T22:04:00.585Z,96.20
2023-05-12T22:06:27.640Z,96.20
2023-05-12T22:08:54.848Z,96.30
2023-05-12T22:11:22.356Z,96.30
2023-05-12T22:13:50.305Z,96.50
2023-05-12T22:16:19.851Z,96.60
2023-05-12T22:18:48.694Z,96.60
2023-05-12T22:21:15.744Z,96.50
2023-05-12T22:23:42.824Z,96.40
2023-05-12T22:26:10.468Z,96.70
2023-05-12T22:28:37.576Z,96.50
2023-05-12T22:31:04.694Z,96.70
2023-05-12T22:33:32.719Z,96.60
2023-05-12T22:36:02.905Z,96.80
2023-05-12T22:38:29.838Z,97.30
2023-05-12T22:40:56.787Z,97.00
2023-05-12T22:43:23.656Z,97.10
2023-05-12T22:45:55.778Z,97.20
2023-05-12T22:48:23.089Z,97.40
2023-05-12T22:50:53.302Z,97.40
2023-05-12T22:53:20.375Z,97.60
2023-05-12T22:55:47.301Z,97.80
2023-05-12T22:58:14.453Z,97.90
2023-05-12T23:00:41.331Z,98.20
2023-05-12T23:03:08.464Z,98.30
2023-05-12T23:05:35.600Z,98.60
2023-05-12T23:08:03.155Z,98.60
2023-05-12T23:10:30.205Z,98.80
2023-05-12T23:12:57.140Z,98.90
2023-05-12T23:15:24.213Z,99.20
2023-05-12T23:17:51.170Z,99.30
2023-05-12T23:20:18.413Z,99.40
2023-05-12T23:22:45.352Z,99.50
2023-05-12T23:25:12.268Z,99.60
2023-05-12T23:27:39.336Z,99.60
2023-05-12T23:30:07.265Z,99.60
2023-05-12T23:32:34.424Z,99.60
2023-05-12T23:35:01.483Z,99.90
2023-05-12T23:37:28.418Z,99.90
2023-05-12T23:39:55.389Z,99.90
2023-05-12T23:42:22.337Z,99.90
2023-05-12T23:44:49.225Z,99.90
2023-05-12T23:47:16.151Z,99.90
2023-05-12T23:49:43.172Z,99.90
2023-05-12T23:52:10.026Z,99.90
2023-05-12T23:54:36.931Z,99.90
2023-05-12T23:57:04.708Z,99.90
2023-05-12T23:59:31.634Z,99.90
